createdAt,value
2019-05-16T00:01:20.612Z,2.60
2019-05-16T00:03:53.605Z,1.72
2019-05-16T00:06:28.400Z,2.80
2019-05-16T00:09:01.869Z,1.82
2019-05-16T00:11:38.413Z,1.80
2019-05-16T00:14:12.413Z,1.67
2019-05-16T00:16:48.236Z,1.82
2019-05-16T00:19:20.804Z,1.98
2019-05-16T00:21:54.306Z,1.47
2019-05-16T00:24:29.142Z,1.50
2019-05-16T00:27:02.349Z,1.40
2019-05-16T00:29:38.160Z,1.52
2019-05-16T00:32:11.394Z,1.37
2019-05-16T00:34:44.544Z,4.08
2019-05-16T00:37:18.198Z,2.42
2019-05-16T00:39:51.274Z,2.05
2019-05-16T00:42:24.631Z,2.90
2019-05-16T00:44:58.501Z,2.60
2019-05-16T00:47:32.117Z,4.45
2019-05-16T00:50:05.725Z,1.47
2019-05-16T00:52:39.620Z,1.60
2019-05-16T00:55:12.985Z,1.25
2019-05-16T00:57:48.136Z,2.30
2019-05-16T01:00:45.862Z,1.67
2019-05-16T01:03:20.383Z,2.27
2019-05-16T01:05:54.377Z,1.52
2019-05-16T01:08:28.244Z,5.80
2019-05-16T01:11:02.344Z,1.62
2019-05-16T01:13:35.323Z,1.70
2019-05-16T01:16:08.650Z,1.10
2019-05-16T01:18:42.716Z,2.77
2019-05-16T01:21:18.373Z,1.60
2019-05-16T01:23:50.924Z,1.10
2019-05-16T01:26:23.636Z,1.45
2019-05-16T01:28:57.734Z,2.90
2019-05-16T01:31:31.174Z,2.77
2019-05-16T01:34:03.400Z,2.25
2019-05-16T01:36:40.054Z,1.60
2019-05-16T01:39:11.962Z,1.45
2019-05-16T01:41:47.972Z,3.15
2019-05-16T01:44:20.137Z,4.10
2019-05-16T01:46:53.124Z,3.37
2019-05-16T01:49:27.953Z,1.62
2019-05-16T01:52:00.712Z,1.25
2019-05-16T01:54:34.517Z,1.17
2019-05-16T01:57:08.154Z,3.27
2019-05-16T01:59:42.060Z,1.55
2019-05-16T02:02:14.623Z,1.27
2019-05-16T02:04:48.504Z,3.55
2019-05-16T02:07:22.153Z,3.00
2019-05-16T02:09:58.093Z,1.40
2019-05-16T02:12:31.253Z,2.50
2019-05-16T02:15:07.733Z,1.30
2019-05-16T02:17:40.619Z,2.87
2019-05-16T02:20:14.002Z,1.65
2019-05-16T02:22:48.210Z,1.62
2019-05-16T02:25:23.462Z,1.55
2019-05-16T02:27:58.857Z,5.58
2019-05-16T02:30:31.670Z,1.35
2019-05-16T02:33:04.373Z,1.62
2019-05-16T02:35:40.283Z,1.30
2019-05-16T02:38:12.903Z,1.30
2019-05-16T02:40:46.609Z,1.42
2019-05-16T02:43:21.918Z,2.10
2019-05-16T02:45:55.868Z,2.37
2019-05-16T02:48:31.601Z,1.32
2019-05-16T02:51:05.566Z,2.05
2019-05-16T02:53:41.544Z,1.57
2019-05-16T02:56:14.299Z,1.30
2019-05-16T02:58:51.683Z,2.35
2019-05-16T03:01:22.653Z,3.40
2019-05-16T03:03:56.112Z,3.35
2019-05-16T03:06:32.081Z,1.55
2019-05-16T03:09:06.611Z,1.32
2019-05-16T03:11:41.910Z,2.05
2019-05-16T03:14:16.728Z,2.08
2019-05-16T03:16:51.105Z,3.83
2019-05-16T03:19:30.938Z,1.85
2019-05-16T03:22:05.134Z,1.52
2019-05-16T03:24:41.999Z,6.92
2019-05-16T03:27:14.450Z,1.42
2019-05-16T03:29:50.602Z,1.50
2019-05-16T03:32:24.530Z,8.70
2019-05-16T03:35:04.023Z,2.25
2019-05-16T03:37:50.127Z,4.60
2019-05-16T03:40:11.069Z,5.53
2019-05-16T03:42:44.409Z,3.67
2019-05-16T03:45:20.907Z,4.20
2019-05-16T03:47:52.981Z,2.60
2019-05-16T03:50:26.273Z,4.35
2019-05-16T03:53:01.577Z,13.70
2019-05-16T03:55:34.455Z,7.55
2019-05-16T03:58:06.746Z,4.85
2019-05-16T04:00:52.164Z,4.30
2019-05-16T04:03:23.234Z,3.33
2019-05-16T04:05:56.966Z,3.60
2019-05-16T04:08:31.450Z,2.27
2019-05-16T04:11:04.761Z,2.60
2019-05-16T04:13:41.224Z,2.10
2019-05-16T04:16:13.168Z,3.05
2019-05-16T04:18:46.585Z,2.30
2019-05-16T04:21:21.944Z,2.33
2019-05-16T04:23:55.156Z,2.02
2019-05-16T04:26:30.964Z,2.25
2019-05-16T04:29:03.173Z,2.65
2019-05-16T04:31:36.741Z,3.37
2019-05-16T04:34:11.679Z,2.10
2019-05-16T04:36:44.962Z,2.52
2019-05-16T04:39:20.882Z,4.87
2019-05-16T04:41:53.885Z,2.20
2019-05-16T04:44:30.982Z,2.08
2019-05-16T04:47:02.107Z,3.22
2019-05-16T04:49:35.070Z,1.67
2019-05-16T04:52:11.236Z,1.47
2019-05-16T04:54:44.410Z,3.55
2019-05-16T04:57:20.658Z,2.35
2019-05-16T04:59:53.157Z,1.60
2019-05-16T05:02:26.434Z,2.35
2019-05-16T05:05:01.316Z,2.35
2019-05-16T05:07:34.882Z,2.25
2019-05-16T05:10:11.343Z,3.52
2019-05-16T05:12:43.103Z,1.70
2019-05-16T05:15:17.267Z,5.15
2019-05-16T05:17:50.365Z,2.27
2019-05-16T05:20:24.008Z,2.15
2019-05-16T05:22:57.008Z,1.67
2019-05-16T05:25:30.832Z,2.02
2019-05-16T05:28:04.202Z,6.15
2019-05-16T05:30:36.875Z,3.00
2019-05-16T05:33:10.113Z,2.83
2019-05-16T05:35:43.565Z,1.85
2019-05-16T05:38:16.580Z,3.08
2019-05-16T05:40:51.054Z,3.40
2019-05-16T05:43:24.794Z,2.75
2019-05-16T05:45:57.493Z,1.87
2019-05-16T05:48:31.067Z,1.92
2019-05-16T05:51:04.256Z,5.25
2019-05-16T05:53:37.132Z,2.20
2019-05-16T05:56:11.420Z,1.72
2019-05-16T05:58:44.941Z,3.02
2019-05-16T06:01:20.459Z,2.00
2019-05-16T06:03:53.348Z,1.72
2019-05-16T06:06:30.232Z,2.33
2019-05-16T06:09:04.718Z,1.85
2019-05-16T06:11:38.008Z,2.02
2019-05-16T06:14:11.282Z,3.12
2019-05-16T06:16:44.289Z,4.03
2019-05-16T06:19:20.056Z,1.98
2019-05-16T06:21:53.723Z,5.15
2019-05-16T06:24:26.701Z,2.22
2019-05-16T06:27:01.059Z,9.60
2019-05-16T06:29:33.800Z,2.05
2019-05-16T06:32:07.093Z,2.00
2019-05-16T06:34:40.608Z,1.82
2019-05-16T06:37:13.587Z,2.95
2019-05-16T06:39:47.095Z,3.95
2019-05-16T06:42:20.884Z,2.72
2019-05-16T06:44:53.797Z,3.52
2019-05-16T06:47:27.555Z,2.98
2019-05-16T06:50:00.795Z,2.55
2019-05-16T06:52:33.767Z,2.85
2019-05-16T06:55:06.854Z,4.92
2019-05-16T06:57:41.013Z,5.70
2019-05-16T07:00:14.447Z,5.50
2019-05-16T07:02:49.981Z,4.87
2019-05-16T07:05:23.532Z,2.17
2019-05-16T07:07:57.256Z,1.95
2019-05-16T07:10:30.653Z,3.42
2019-05-16T07:13:03.931Z,3.35
2019-05-16T07:15:37.020Z,3.58
2019-05-16T07:18:12.928Z,4.50
2019-05-16T07:20:45.142Z,3.10
2019-05-16T07:23:20.630Z,3.85
2019-05-16T07:25:56.241Z,2.65
2019-05-16T07:28:30.080Z,3.77
2019-05-16T07:31:14.798Z,2.50
2019-05-16T07:33:40.668Z,2.35
2019-05-16T07:36:16.477Z,3.70
2019-05-16T07:38:50.717Z,3.30
2019-05-16T07:41:23.997Z,2.33
2019-05-16T07:43:57.336Z,3.05
2019-05-16T07:46:31.575Z,2.90
2019-05-16T07:49:04.883Z,2.12
2019-05-16T07:51:40.262Z,4.33
2019-05-16T07:54:14.646Z,1.60
2019-05-16T07:56:57.201Z,5.85
2019-05-16T07:59:22.678Z,6.35
2019-05-16T08:01:56.339Z,2.52
2019-05-16T08:04:30.544Z,1.60
2019-05-16T08:07:05.758Z,2.72
2019-05-16T08:09:39.735Z,3.72
2019-05-16T08:12:13.060Z,2.55
2019-05-16T08:14:46.063Z,4.80
2019-05-16T08:17:21.405Z,1.80
2019-05-16T08:19:52.938Z,2.75
2019-05-16T08:22:26.252Z,2.15
2019-05-16T08:25:00.262Z,2.17
2019-05-16T08:27:33.846Z,3.12
2019-05-16T08:30:07.671Z,2.15
2019-05-16T08:32:42.371Z,1.90
2019-05-16T08:35:16.383Z,3.95
2019-05-16T08:37:51.560Z,3.25
2019-05-16T08:40:24.173Z,3.40
2019-05-16T08:42:57.107Z,3.27
2019-05-16T08:45:31.546Z,11.43
2019-05-16T08:48:04.504Z,11.08
2019-05-16T08:50:41.120Z,14.50
2019-05-16T08:53:13.918Z,18.67
2019-05-16T08:55:46.544Z,5.65
2019-05-16T08:58:22.532Z,11.93
2019-05-16T09:00:55.829Z,2.45
2019-05-16T09:06:04.281Z,9.93
2019-05-16T09:08:38.031Z,2.35
2019-05-16T09:10:15.893Z,9.08
2019-05-16T09:11:39.082Z,2.25
2019-05-16T09:13:47.707Z,2.25
2019-05-16T09:16:21.130Z,2.12
2019-05-16T09:18:54.236Z,3.15
2019-05-16T09:21:27.713Z,2.77
2019-05-16T09:24:01.229Z,2.65
2019-05-16T09:26:38.269Z,1.70
2019-05-16T09:29:11.101Z,1.95
2019-05-16T09:32:04.523Z,3.30
2019-05-16T09:34:19.460Z,9.50
2019-05-16T09:36:52.074Z,4.45
2019-05-16T09:39:27.560Z,5.03
2019-05-16T09:42:00.565Z,9.13
2019-05-16T09:44:33.887Z,6.22
2019-05-16T09:47:07.725Z,3.27
2019-05-16T09:49:40.574Z,2.70
2019-05-16T09:52:16.438Z,6.90
2019-05-16T09:54:49.194Z,4.15
2019-05-16T09:57:22.603Z,2.12
2019-05-16T09:59:57.155Z,2.40
2019-05-16T10:02:30.326Z,2.90
2019-05-16T10:05:12.268Z,3.25
2019-05-16T10:07:40.227Z,3.95
2019-05-16T10:10:13.777Z,6.72
2019-05-16T10:12:47.806Z,4.80
2019-05-16T10:15:20.948Z,15.63
2019-05-16T10:17:53.563Z,3.95
2019-05-16T10:20:27.459Z,4.55
2019-05-16T10:23:00.969Z,1.82
2019-05-16T10:25:33.766Z,3.52
2019-05-16T10:28:07.672Z,4.40
2019-05-16T10:30:40.753Z,5.03
2019-05-16T10:33:17.332Z,4.08
2019-05-16T10:35:49.284Z,3.52
2019-05-16T10:38:22.389Z,2.20
2019-05-16T10:40:56.611Z,4.15
2019-05-16T10:43:30.099Z,3.27
2019-05-16T10:46:03.118Z,2.87
2019-05-16T10:48:37.782Z,13.78
2019-05-16T10:51:11.310Z,4.45
2019-05-16T10:54:02.586Z,3.50
2019-05-16T10:56:19.655Z,2.87
2019-05-16T10:59:27.413Z,3.67
2019-05-16T11:01:31.163Z,2.40
2019-05-16T11:04:03.501Z,2.02
2019-05-16T11:06:37.329Z,2.00
2019-05-16T11:09:10.652Z,4.92
2019-05-16T11:11:47.670Z,2.92
2019-05-16T11:14:21.283Z,3.45
2019-05-16T11:16:57.940Z,6.07
2019-05-16T11:19:29.192Z,3.40
2019-05-16T11:22:02.186Z,2.30
2019-05-16T11:24:37.705Z,2.90
2019-05-16T11:27:10.357Z,2.58
2019-05-16T11:29:43.464Z,3.37
2019-05-16T11:32:17.204Z,2.70
2019-05-16T11:34:50.980Z,2.25
2019-05-16T11:37:23.846Z,3.22
2019-05-16T11:39:57.231Z,2.72
2019-05-16T11:42:30.722Z,5.40
2019-05-16T11:45:08.639Z,2.65
2019-05-16T11:47:39.264Z,2.45
2019-05-16T11:50:12.957Z,5.05
2019-05-16T11:52:47.838Z,4.22
2019-05-16T11:55:21.285Z,3.85
2019-05-16T11:57:56.813Z,4.22
2019-05-16T12:00:30.458Z,2.65
2019-05-16T12:03:04.159Z,3.00
2019-05-16T12:05:37.946Z,4.30
2019-05-16T12:08:11.349Z,3.35
2019-05-16T12:10:46.930Z,3.22
2019-05-16T12:13:27.472Z,4.37
2019-05-16T12:15:56.608Z,4.08
2019-05-16T12:18:30.439Z,3.95
2019-05-16T12:21:03.750Z,3.98
2019-05-16T12:23:38.155Z,4.40
2019-05-16T12:26:11.574Z,4.72
2019-05-16T12:28:44.993Z,3.95
2019-05-16T12:31:18.610Z,4.80
2019-05-16T12:33:51.639Z,4.55
2019-05-16T12:36:26.862Z,6.60
2019-05-16T12:39:00.387Z,4.50
2019-05-16T12:41:33.895Z,5.05
2019-05-16T12:44:07.607Z,3.22
2019-05-16T12:46:41.468Z,3.62
2019-05-16T12:49:17.351Z,4.25
2019-05-16T12:51:50.464Z,4.75
2019-05-16T12:54:24.360Z,5.40
2019-05-16T12:56:58.236Z,6.40
2019-05-16T12:59:31.930Z,5.00
2019-05-16T13:02:07.704Z,3.80
2019-05-16T13:04:40.332Z,3.98
2019-05-16T13:07:13.808Z,4.55
2019-05-16T13:09:50.248Z,3.87
2019-05-16T13:12:27.032Z,4.40
2019-05-16T13:14:59.796Z,4.55
2019-05-16T13:17:37.115Z,4.12
2019-05-16T13:20:11.248Z,3.95
2019-05-16T13:22:43.928Z,3.20
2019-05-16T13:25:18.413Z,4.30
2019-05-16T13:27:51.158Z,5.25
2019-05-16T13:30:23.437Z,4.58
2019-05-16T13:32:56.909Z,3.95
2019-05-16T13:35:30.652Z,3.85
2019-05-16T13:38:07.606Z,5.80
2019-05-16T13:40:39.453Z,4.47
2019-05-16T13:43:13.270Z,4.20
2019-05-16T13:45:47.303Z,4.37
2019-05-16T13:48:20.807Z,3.87
2019-05-16T13:51:08.325Z,4.00
2019-05-16T13:53:29.523Z,4.00
2019-05-16T13:56:02.364Z,6.08
2019-05-16T13:58:37.276Z,3.58
2019-05-16T14:01:11.474Z,6.05
2019-05-16T14:03:44.617Z,4.65
2019-05-16T14:06:18.547Z,5.83
2019-05-16T14:08:52.319Z,4.45
2019-05-16T14:11:25.868Z,4.60
2019-05-16T14:13:58.294Z,5.87
2019-05-16T14:16:31.518Z,4.70
2019-05-16T14:19:04.550Z,5.00
2019-05-16T14:21:37.489Z,4.53
2019-05-16T14:24:11.096Z,5.17
2019-05-16T14:26:46.349Z,4.83
2019-05-16T14:29:18.838Z,5.15
2019-05-16T14:31:52.896Z,4.40
2019-05-16T14:34:27.856Z,6.00
2019-05-16T14:37:01.686Z,7.78
2019-05-16T14:39:38.437Z,8.03
2019-05-16T14:42:10.538Z,4.67
2019-05-16T14:45:02.978Z,4.20
2019-05-16T14:47:19.515Z,10.13
2019-05-16T14:49:52.663Z,6.25
2019-05-16T14:52:27.133Z,5.37
2019-05-16T14:55:00.471Z,7.50
2019-05-16T14:57:33.901Z,10.20
2019-05-16T15:00:09.583Z,7.78
2019-05-16T15:02:42.595Z,5.53
2019-05-16T15:05:16.459Z,5.85
2019-05-16T15:07:50.854Z,6.67
2019-05-16T15:10:23.972Z,5.80
2019-05-16T15:12:57.335Z,6.33
2019-05-16T15:15:30.455Z,5.60
2019-05-16T15:18:04.051Z,4.67
2019-05-16T15:20:36.807Z,5.75
2019-05-16T15:23:10.717Z,6.47
2019-05-16T15:25:44.013Z,7.35
2019-05-16T15:28:17.442Z,7.60
2019-05-16T15:30:51.007Z,5.83
2019-05-16T15:33:24.254Z,8.30
2019-05-16T15:35:58.019Z,7.05
2019-05-16T15:38:32.513Z,9.88
2019-05-16T15:41:08.302Z,7.25
2019-05-16T15:43:41.306Z,8.53
2019-05-16T15:46:14.464Z,6.80
2019-05-16T15:48:48.825Z,18.52
2019-05-16T15:51:22.409Z,8.08
2019-05-16T15:53:57.207Z,9.00
2019-05-16T15:56:31.328Z,10.70
2019-05-16T15:59:06.943Z,9.55
2019-05-16T16:01:39.425Z,11.65
2019-05-16T16:04:12.969Z,10.70
2019-05-16T16:06:47.523Z,11.75
2019-05-16T16:09:21.505Z,11.20
2019-05-16T16:11:56.584Z,11.70
2019-05-16T16:14:29.721Z,12.75
2019-05-16T16:17:03.052Z,15.03
2019-05-16T16:19:37.230Z,11.35
2019-05-16T16:22:10.734Z,12.33
2019-05-16T16:24:47.536Z,11.28
2019-05-16T16:27:19.589Z,12.68
2019-05-16T16:29:53.088Z,10.00
2019-05-16T16:32:26.967Z,12.35
2019-05-16T16:35:00.490Z,12.73
2019-05-16T16:37:33.255Z,11.95
2019-05-16T16:40:11.409Z,12.75
2019-05-16T16:42:41.584Z,9.85
2019-05-16T16:45:16.760Z,10.63
2019-05-16T16:47:50.361Z,11.03
2019-05-16T16:50:26.585Z,10.78
2019-05-16T16:53:00.310Z,10.78
2019-05-16T16:55:33.297Z,12.15
2019-05-16T16:58:09.598Z,10.82
2019-05-16T17:00:42.067Z,9.65
2019-05-16T17:03:16.694Z,11.15
2019-05-16T17:05:49.918Z,14.28
2019-05-16T17:08:23.653Z,12.58
2019-05-16T17:10:57.653Z,13.08
2019-05-16T17:13:31.030Z,11.05
2019-05-16T17:16:04.163Z,12.75
2019-05-16T17:18:38.272Z,13.30
2019-05-16T17:21:12.794Z,14.40
2019-05-16T17:23:46.714Z,12.63
2019-05-16T17:26:20.335Z,13.32
2019-05-16T17:28:53.614Z,14.15
2019-05-16T17:31:26.698Z,16.32
2019-05-16T17:34:03.299Z,16.97
2019-05-16T17:36:37.255Z,19.32
2019-05-16T17:39:11.262Z,18.45
2019-05-16T17:41:49.182Z,17.25
2019-05-16T17:44:20.232Z,17.90
2019-05-16T17:46:53.756Z,16.77
2019-05-16T17:49:28.296Z,16.42
2019-05-16T17:52:01.986Z,18.02
2019-05-16T17:54:37.271Z,17.90
2019-05-16T17:57:11.137Z,18.32
2019-05-16T17:59:44.617Z,22.37
2019-05-16T18:02:18.609Z,19.30
2019-05-16T18:04:52.138Z,20.37
2019-05-16T18:07:25.201Z,18.80
2019-05-16T18:09:59.257Z,18.37
2019-05-16T18:12:32.836Z,21.50
2019-05-16T18:15:08.589Z,19.30
2019-05-16T18:17:42.111Z,22.30
2019-05-16T18:20:15.793Z,23.40
2019-05-16T18:22:49.134Z,22.20
2019-05-16T18:25:22.071Z,21.48
2019-05-16T18:27:55.663Z,21.55
2019-05-16T18:30:29.080Z,22.75
2019-05-16T18:33:02.595Z,23.42
2019-05-16T18:35:36.973Z,22.40
2019-05-16T18:38:10.529Z,22.77
2019-05-16T18:40:43.222Z,24.55
2019-05-16T18:43:16.987Z,26.57
2019-05-16T18:45:50.764Z,24.45
2019-05-16T18:48:23.950Z,26.95
2019-05-16T18:50:58.399Z,24.77
2019-05-16T18:53:32.089Z,31.20
2019-05-16T18:56:07.784Z,31.40
2019-05-16T18:58:41.175Z,30.12
2019-05-16T19:01:14.377Z,28.75
2019-05-16T19:03:48.998Z,29.57
2019-05-16T19:06:22.659Z,30.92
2019-05-16T19:08:56.341Z,33.58
2019-05-16T19:11:31.677Z,34.00
2019-05-16T19:14:07.394Z,37.08
2019-05-16T19:16:40.874Z,35.17
2019-05-16T19:19:13.630Z,35.73
2019-05-16T19:21:48.544Z,38.33
2019-05-16T19:24:22.398Z,44.80
2019-05-16T19:26:57.307Z,44.58
2019-05-16T19:29:30.932Z,42.08
2019-05-16T19:32:06.522Z,41.65
2019-05-16T19:34:39.274Z,42.03
2019-05-16T19:37:16.098Z,41.60
2019-05-16T19:39:49.255Z,39.92
2019-05-16T19:42:22.684Z,43.83
2019-05-16T19:44:56.432Z,44.63
2019-05-16T19:47:37.151Z,46.08
2019-05-16T19:50:06.613Z,42.90
2019-05-16T19:52:39.566Z,41.85
2019-05-16T19:55:12.455Z,42.10
2019-05-16T19:57:46.614Z,43.68
2019-05-16T20:00:20.066Z,38.40
2019-05-16T20:02:53.173Z,39.15
2019-05-16T20:05:26.942Z,43.73
2019-05-16T20:08:02.293Z,44.63
2019-05-16T20:10:36.748Z,41.33
2019-05-16T20:13:09.840Z,39.15
2019-05-16T20:15:43.639Z,34.00
2019-05-16T20:18:18.532Z,39.83
2019-05-16T20:20:51.618Z,40.35
2019-05-16T20:23:24.256Z,40.10
2019-05-16T20:25:57.129Z,38.63
2019-05-16T20:28:31.170Z,40.35
2019-05-16T20:31:04.451Z,38.78
2019-05-16T20:33:37.658Z,33.33
2019-05-16T20:36:11.157Z,38.45
2019-05-16T20:38:46.549Z,39.85
2019-05-16T20:41:19.549Z,39.00
2019-05-16T20:43:53.351Z,36.55
2019-05-16T20:46:26.462Z,42.45
2019-05-16T20:49:00.254Z,36.73
2019-05-16T20:51:33.939Z,38.00
2019-05-16T20:54:07.097Z,38.30
2019-05-16T20:56:41.159Z,39.18
2019-05-16T20:59:17.098Z,36.65
2019-05-16T21:01:50.854Z,36.23
2019-05-16T21:04:26.592Z,43.13
2019-05-16T21:07:05.738Z,38.25
2019-05-16T21:09:36.872Z,44.13
2019-05-16T21:12:09.284Z,41.40
2019-05-16T21:14:43.430Z,36.53
2019-05-16T21:17:17.392Z,45.45
2019-05-16T21:19:51.077Z,37.30
2019-05-16T21:22:23.731Z,38.08
2019-05-16T21:24:57.196Z,38.20
2019-05-16T21:27:30.972Z,33.92
2019-05-16T21:30:04.661Z,40.70
2019-05-16T21:32:38.355Z,40.67
2019-05-16T21:35:11.848Z,38.05
2019-05-16T21:37:46.639Z,37.75
2019-05-16T21:40:19.062Z,36.68
2019-05-16T21:42:52.565Z,34.50
2019-05-16T21:45:28.449Z,38.73
2019-05-16T21:48:00.782Z,36.68
2019-05-16T21:50:34.172Z,38.53
2019-05-16T21:53:07.669Z,31.57
2019-05-16T21:55:40.223Z,32.98
2019-05-16T21:58:14.085Z,32.88
2019-05-16T22:00:51.649Z,37.10
2019-05-16T22:03:26.820Z,34.10
2019-05-16T22:06:00.397Z,32.85
2019-05-16T22:08:33.466Z,32.00
2019-05-16T22:11:08.920Z,29.95
2019-05-16T22:13:42.655Z,35.45
2019-05-16T22:16:17.659Z,29.82
2019-05-16T22:18:50.174Z,34.58
2019-05-16T22:21:23.137Z,30.30
2019-05-16T22:23:57.062Z,29.75
2019-05-16T22:26:30.551Z,30.65
2019-05-16T22:29:03.519Z,31.05
2019-05-16T22:31:37.041Z,35.60
2019-05-16T22:34:10.623Z,36.60
2019-05-16T22:36:43.285Z,34.80
2019-05-16T22:39:17.336Z,33.67
2019-05-16T22:41:52.980Z,33.92
2019-05-16T22:44:27.079Z,45.23
2019-05-16T22:47:00.354Z,35.35
2019-05-16T22:49:33.249Z,34.23
2019-05-16T22:52:06.795Z,37.93
2019-05-16T22:54:40.469Z,35.58
2019-05-16T22:57:13.869Z,37.95
2019-05-16T22:59:47.376Z,39.33
2019-05-16T23:02:20.767Z,45.38
2019-05-16T23:04:56.597Z,41.68
2019-05-16T23:07:30.288Z,41.98
2019-05-16T23:10:03.631Z,43.45
2019-05-16T23:12:37.460Z,39.73
2019-05-16T23:15:10.831Z,41.02
2019-05-16T23:17:46.415Z,40.10
2019-05-16T23:20:19.463Z,48.28
2019-05-16T23:22:52.919Z,43.78
2019-05-16T23:25:26.428Z,42.95
2019-05-16T23:28:00.605Z,41.85
2019-05-16T23:30:36.476Z,40.08
2019-05-16T23:33:09.819Z,45.98
2019-05-16T23:35:44.034Z,43.92
2019-05-16T23:38:20.032Z,45.50
2019-05-16T23:40:52.106Z,49.23
2019-05-16T23:43:24.803Z,47.70
2019-05-16T23:45:58.555Z,44.63
2019-05-16T23:48:31.865Z,45.38
2019-05-16T23:51:04.478Z,42.67
2019-05-16T23:53:38.515Z,47.55
2019-05-16T23:56:11.423Z,44.35
2019-05-16T23:58:44.710Z,49.50
